Forside
METAR-TAF:

METAR-TAF

Lufthavne :

Radom-Sadków

Radom, Polen

Breddekreds: 51-23-21N, længdekreds: 21-12-49E, højde: 186 m

Aktuelle vejr

Denne rapport blev lavet for 25 minutter siden, kl. 07:30 UTC
Vind 8 kt fra sydøst, varierende mellem øst og syd
Temperatur 22°C
Fugtighed 57%
Tryk 1021 hPa
Sigt 10 km eller mere
ingen skyer under 1500m og ingen cumulonimbus

METAR: EPRA 260730Z 13008KT 100V170 CAVOK 22/13 Q1021

Tid: 09:55 (07:55 UTC)

Vejrudsigter

Denne rapport blev lavet for 2 timer og 25 minutter siden, kl. 05:30 UTC
Foreløbig gælder fra 26 på 06 UTC til 26 på 15 UTC
Vind 8 kt fra sydøst
Sigt 10 km eller mere
ingen skyer under 1500m og ingen cumulonimbus

TAF: EPRA 260530Z 2606/2615 14008KT CAVOK

Vejrobservationer og prognoser fra mere end 4000 lufthavne (METAR og TAF).

De gule og røde prikker repræsenterer de meteorologiske stationer.

Flyt musen over at se navnet på stationen.

Så klik over at se vejr observationer og prognoser.

At skifte det kort: Klik på de grønne knapper med et sort kors for at zoome ind; på den grønne knap med en bindestreg for at zoome ud; eller på de grønne pile for tilstødende kort.


METAR-TAF: